Time;durP1;ratioP1;P1;durP2;ratioP2;P2;SDS_P1;SDS_P2;PMS_P1;PMS_P2;Temp;Humidity;BMP_temperature;BMP_pressure;BME280_temperature;BME280_humidity;BME280_pressure;Samples;Min_cycle;Max_cycle;Signal;HPM_P1;HPM_P2
2021/12/10 00:00:48;;;;;;;;;;;;;;;8.95;61.59;99691.16;5062406;28;19948;-85
2021/12/10 00:03:25;;;;;;;;;;;;;;;8.19;64.46;99692.78;5045512;28;19939;-87
2021/12/10 00:05:52;;;;;;;;;;;;;;;8.02;65.03;99696.44;5061127;28;19921;-84
2021/12/10 00:08:18;;;;;;;;;;;;;;;8.41;64.21;99705.94;5061022;28;19943;-86
2021/12/10 00:10:45;;;;;;;;;;;;;;;8.12;65.58;99686.00;5064567;28;19912;-86
2021/12/10 00:13:11;;;;;;;;;;;;;;;8.47;64.81;99675.97;5064847;28;19924;-86
2021/12/10 00:15:37;;;;;;;;;;;;;;;8.52;63.13;99678.38;5065685;28;19912;-85
2021/12/10 00:18:05;;;;;;;;;;;;;;;8.60;63.62;99676.09;5050472;28;19986;-85
2021/12/10 00:20:32;;;;;;;;;;;;;;;8.68;64.03;99667.56;5067251;28;19917;-85
2021/12/10 00:23:03;;;;;;;;;;;;;;;8.58;62.78;99667.25;5065368;28;19912;-85
2021/12/10 00:25:35;;;;;;;;;;;;;;;8.09;66.11;99656.53;5065772;28;19987;-85
2021/12/10 00:28:02;;;;;;;;;;;;;;;7.99;65.34;99654.38;5069231;28;19917;-87
2021/12/10 00:30:32;;;;;;;;;;;;;;;8.54;63.38;99648.66;5070240;28;19917;-86
2021/12/10 00:33:10;;;;;;;;;;;;;;;7.88;66.52;99653.22;5067212;28;19916;-86
2021/12/10 00:35:36;;;;;;;;;;;;;;;7.97;65.89;99650.03;5066024;28;19921;-88
2021/12/10 00:38:01;;;;;;;;;;;;;;;8.02;66.61;99636.28;5065470;28;19917;-87
2021/12/10 00:40:27;;;;;;;;;;;;;;;8.74;63.91;99625.88;5065756;28;20123;-86
2021/12/10 00:42:53;;;;;;;;;;;;;;;7.85;66.08;99613.03;5064857;28;19901;-86
2021/12/10 00:45:19;;;;;;;;;;;;;;;8.71;63.44;99609.91;5064418;28;19921;-85
2021/12/10 00:47:48;;;;;;;;;;;;;;;7.89;66.57;99614.59;5063478;28;19925;-86
2021/12/10 00:50:21;;;;;;;;;;;;;;;8.04;64.43;99618.25;5063796;28;19917;-86
2021/12/10 00:52:47;;;;;;;;;;;;;;;8.59;63.00;99596.22;5064638;28;19917;-86
2021/12/10 00:55:13;;;;;;;;;;;;;;;8.35;64.76;99595.78;5066161;28;20275;-85
2021/12/10 00:57:38;;;;;;;;;;;;;;;8.03;65.87;99586.88;5065192;28;19921;-87
2021/12/10 01:00:05;;;;;;;;;;;;;;;8.98;62.89;99570.50;5064460;28;19917;-86
2021/12/10 01:02:31;;;;;;;;;;;;;;;8.42;63.53;99572.03;5062090;28;19917;-85
2021/12/10 01:04:58;;;;;;;;;;;;;;;8.76;62.76;99564.66;5062170;28;19917;-86
2021/12/10 01:07:25;;;;;;;;;;;;;;;9.10;60.89;99558.03;5061162;28;19917;-86
2021/12/10 01:09:52;;;;;;;;;;;;;;;8.55;62.62;99553.34;5060684;28;20023;-85
2021/12/10 01:12:38;;;;;;;;;;;;;;;9.02;60.50;99549.56;5061516;28;20012;-87
2021/12/10 01:28:57;;;;;;;;;;;;;;;7.78;64.82;99529.91;5020410;28;19960;-84
2021/12/10 01:31:23;;;;;;;;;;;;;;;9.39;59.89;99507.63;5064435;28;19917;-86
2021/12/10 01:33:50;;;;;;;;;;;;;;;8.73;60.77;99514.47;5063897;28;20382;-86
2021/12/10 01:36:16;;;;;;;;;;;;;;;7.90;63.04;99514.00;5062643;28;19927;-86
2021/12/10 01:38:42;;;;;;;;;;;;;;;8.12;62.34;99506.41;5063936;28;19952;-86
2021/12/10 01:41:12;;;;;;;;;;;;;;;8.36;61.15;99513.97;5062230;28;19928;-85
2021/12/10 01:43:39;;;;;;;;;;;;;;;7.31;66.32;99514.63;5064130;28;19923;-86
2021/12/10 01:46:11;;;;;;;;;;;;;;;8.83;60.14;99498.59;5063922;28;20052;-86
2021/12/10 01:48:38;;;;;;;;;;;;;;;8.56;60.49;99490.38;5063057;28;20035;-86
2021/12/10 01:51:04;;;;;;;;;;;;;;;7.50;63.80;99501.00;5062960;28;19921;-86
2021/12/10 01:53:31;;;;;;;;;;;;;;;7.77;63.24;99486.91;5062554;28;19917;-86
2021/12/10 01:55:57;;;;;;;;;;;;;;;8.57;60.01;99484.03;5063059;28;19917;-84
2021/12/10 01:58:24;;;;;;;;;;;;;;;8.62;60.44;99479.22;5065369;28;19924;-86
2021/12/10 02:00:56;;;;;;;;;;;;;;;7.83;63.00;99480.31;5063097;28;19916;-86
2021/12/10 02:03:22;;;;;;;;;;;;;;;8.37;60.66;99460.97;5063299;28;19917;-86
2021/12/10 02:05:47;;;;;;;;;;;;;;;8.25;61.14;99459.88;5063367;28;19924;-85
2021/12/10 02:08:12;;;;;;;;;;;;;;;8.50;61.40;99445.81;5063617;28;19974;-87
2021/12/10 02:10:38;;;;;;;;;;;;;;;8.25;62.05;99438.31;5065334;28;19916;-87
2021/12/10 02:13:04;;;;;;;;;;;;;;;8.67;59.32;99437.53;5063389;28;19917;-87
2021/12/10 02:15:29;;;;;;;;;;;;;;;7.56;63.80;99445.97;5062724;28;19923;-86
2021/12/10 02:17:57;;;;;;;;;;;;;;;8.18;61.70;99436.97;5064012;28;19932;-86
2021/12/10 02:20:42;;;;;;;;;;;;;;;8.59;60.96;99425.50;5063203;28;19924;-87
2021/12/10 02:23:08;;;;;;;;;;;;;;;8.14;62.79;99420.97;5063441;28;19936;-86
2021/12/10 02:25:37;;;;;;;;;;;;;;;7.87;63.98;99419.94;5061344;28;19917;-86
2021/12/10 02:28:04;;;;;;;;;;;;;;;8.74;60.16;99410.19;5061841;28;19939;-86
2021/12/10 02:30:30;;;;;;;;;;;;;;;8.13;62.22;99411.16;5062484;28;19944;-86
2021/12/10 02:32:55;;;;;;;;;;;;;;;8.27;62.21;99409.44;5063230;28;19924;-87
2021/12/10 02:35:21;;;;;;;;;;;;;;;8.65;60.84;99395.44;5061949;28;19969;-87
2021/12/10 02:37:46;;;;;;;;;;;;;;;8.06;62.61;99401.75;5060873;28;19923;-86
2021/12/10 02:40:13;;;;;;;;;;;;;;;8.32;61.21;99383.09;5062635;28;19917;-85
2021/12/10 02:42:39;;;;;;;;;;;;;;;8.55;60.61;99387.09;5061835;28;19960;-85
2021/12/10 02:45:08;;;;;;;;;;;;;;;8.08;62.15;99380.09;5061989;28;20367;-87
2021/12/10 02:47:34;;;;;;;;;;;;;;;9.26;58.61;99381.69;5063902;28;19929;-85
2021/12/10 02:49:59;;;;;;;;;;;;;;;9.43;57.22;99373.34;5062922;28;19956;-88
2021/12/10 02:52:26;;;;;;;;;;;;;;;8.59;59.94;99371.56;5061449;28;19963;-87
2021/12/10 02:54:51;;;;;;;;;;;;;;;8.99;58.73;99355.56;5060762;28;19917;-83
2021/12/10 02:57:17;;;;;;;;;;;;;;;8.33;61.06;99352.50;5060395;28;19963;-86
2021/12/10 02:59:43;;;;;;;;;;;;;;;8.97;59.44;99344.00;5061464;28;20445;-86
2021/12/10 03:02:12;;;;;;;;;;;;;;;9.20;57.89;99340.66;5061536;28;19984;-86
2021/12/10 03:04:38;;;;;;;;;;;;;;;7.81;63.00;99343.97;5062423;28;19900;-87
2021/12/10 03:07:07;;;;;;;;;;;;;;;8.07;61.66;99338.81;5061246;28;19956;-85
2021/12/10 03:09:33;;;;;;;;;;;;;;;8.68;60.13;99327.84;5059712;28;20016;-85
2021/12/10 03:12:00;;;;;;;;;;;;;;;8.62;60.50;99331.84;5060416;28;19972;-86
2021/12/10 03:14:27;;;;;;;;;;;;;;;9.21;57.90;99325.34;5042952;28;19916;-84
2021/12/10 03:16:56;;;;;;;;;;;;;;;8.78;59.65;99333.53;5059209;28;21552;-86
2021/12/10 03:19:21;;;;;;;;;;;;;;;9.39;56.31;99324.09;5059523;28;19917;-85
2021/12/10 03:21:47;;;;;;;;;;;;;;;9.03;59.95;99320.19;5059581;28;19917;-85
2021/12/10 03:24:15;;;;;;;;;;;;;;;8.96;60.96;99310.75;5059987;28;19916;-86
2021/12/10 03:26:40;;;;;;;;;;;;;;;8.51;63.67;99307.38;5061722;28;20400;-87
2021/12/10 03:29:06;;;;;;;;;;;;;;;8.02;67.10;99303.22;5066176;28;19917;-85
2021/12/10 03:31:31;;;;;;;;;;;;;;;8.21;65.31;99296.69;5070834;28;20015;-84
2021/12/10 03:33:57;;;;;;;;;;;;;;;8.23;100.00;99297.44;5064285;28;19900;-86
2021/12/10 03:36:23;;;;;;;;;;;;;;;7.81;100.00;99292.81;5060107;28;19917;-86
2021/12/10 03:38:48;;;;;;;;;;;;;;;8.52;100.00;99283.03;5058929;28;19928;-85
2021/12/10 03:41:14;;;;;;;;;;;;;;;8.28;81.41;99289.97;5058798;28;20423;-86
2021/12/10 03:43:40;;;;;;;;;;;;;;;8.33;73.86;99285.13;5059440;28;20601;-85
2021/12/10 03:46:06;;;;;;;;;;;;;;;8.31;72.29;99273.59;5057853;28;19916;-85
2021/12/10 03:48:33;;;;;;;;;;;;;;;7.91;73.20;99274.28;5059158;28;19921;-85
2021/12/10 03:51:00;;;;;;;;;;;;;;;8.34;72.86;99271.56;5047806;28;19932;-86
2021/12/10 03:53:25;;;;;;;;;;;;;;;8.57;70.54;99276.47;5065504;28;20003;-86
2021/12/10 03:55:51;;;;;;;;;;;;;;;8.79;71.00;99266.03;5065395;28;20378;-86
2021/12/10 03:58:18;;;;;;;;;;;;;;;8.22;70.90;99258.88;5064844;28;20282;-87
2021/12/10 04:00:48;;;;;;;;;;;;;;;7.93;71.91;99263.41;5064884;28;19924;-89
2021/12/10 04:03:15;;;;;;;;;;;;;;;8.03;74.78;99245.72;5065651;28;19916;-88
2021/12/10 04:05:41;;;;;;;;;;;;;;;8.61;71.94;99240.28;5065250;28;19917;-87
2021/12/10 04:08:06;;;;;;;;;;;;;;;8.06;72.43;99234.75;5065740;28;19916;-88
2021/12/10 04:10:32;;;;;;;;;;;;;;;8.80;70.36;99221.03;5065162;28;19917;-86
2021/12/10 04:12:57;;;;;;;;;;;;;;;8.68;69.31;99230.81;5065220;28;19917;-86
2021/12/10 04:15:23;;;;;;;;;;;;;;;8.33;70.57;99232.13;5066197;28;20359;-87
2021/12/10 04:17:54;;;;;;;;;;;;;;;8.69;70.04;99227.16;5063778;28;19921;-86
2021/12/10 04:20:20;;;;;;;;;;;;;;;8.32;70.06;99219.59;5064329;28;19921;-87
2021/12/10 04:22:46;;;;;;;;;;;;;;;9.67;66.78;99205.25;5064589;28;19979;-86
2021/12/10 04:25:13;;;;;;;;;;;;;;;8.85;68.69;99211.69;5064594;28;19916;-86
2021/12/10 04:27:42;;;;;;;;;;;;;;;8.62;67.74;99205.13;5065842;28;20004;-85
2021/12/10 04:30:10;;;;;;;;;;;;;;;9.27;66.58;99200.78;5068339;28;19959;-86
2021/12/10 04:32:35;;;;;;;;;;;;;;;8.99;67.31;99199.09;5070291;28;19944;-85
2021/12/10 04:35:01;;;;;;;;;;;;;;;8.61;67.76;99181.84;5069389;28;19928;-85
2021/12/10 04:37:26;;;;;;;;;;;;;;;8.96;67.28;99169.66;5065768;28;20325;-85
2021/12/10 04:39:51;;;;;;;;;;;;;;;9.42;66.68;99165.59;5064248;28;19923;-86
2021/12/10 04:42:19;;;;;;;;;;;;;;;8.80;67.58;99168.00;5066424;28;19964;-87
2021/12/10 04:44:45;;;;;;;;;;;;;;;9.17;67.00;99167.31;5066429;28;19917;-86
2021/12/10 04:47:10;;;;;;;;;;;;;;;8.92;67.99;99171.66;5065663;28;20009;-86
2021/12/10 04:49:35;;;;;;;;;;;;;;;8.64;68.36;99170.00;5065143;28;19917;-85
2021/12/10 04:52:01;;;;;;;;;;;;;;;8.84;68.73;99165.94;5064167;28;19917;-84
2021/12/10 04:54:27;;;;;;;;;;;;;;;8.18;69.94;99162.19;5064849;28;20004;-85
2021/12/10 04:56:54;;;;;;;;;;;;;;;8.27;68.70;99158.91;5064711;28;19998;-85
2021/12/10 04:59:20;;;;;;;;;;;;;;;8.70;67.74;99153.41;5064980;28;19913;-86
2021/12/10 05:01:46;;;;;;;;;;;;;;;8.78;67.29;99150.19;5062378;28;19924;-88
2021/12/10 05:04:12;;;;;;;;;;;;;;;8.40;69.25;99146.34;5062071;28;19952;-87
2021/12/10 05:06:37;;;;;;;;;;;;;;;8.34;68.46;99147.63;5062734;28;19916;-87
2021/12/10 05:09:04;;;;;;;;;;;;;;;8.21;68.76;99138.59;5061819;28;19975;-88
2021/12/10 05:11:30;;;;;;;;;;;;;;;9.31;67.07;99126.72;5062354;28;19917;-88
2021/12/10 05:13:55;;;;;;;;;;;;;;;8.85;66.45;99133.47;5062059;28;19924;-86
2021/12/10 05:16:26;;;;;;;;;;;;;;;9.06;66.34;99135.69;5061790;28;19969;-86
2021/12/10 05:18:57;;;;;;;;;;;;;;;8.55;68.18;99136.41;5061709;28;19917;-87
2021/12/10 05:21:23;;;;;;;;;;;;;;;7.98;69.72;99140.97;5062465;28;19985;-87
2021/12/10 05:23:48;;;;;;;;;;;;;;;8.15;69.42;99134.50;5062051;28;19949;-86
2021/12/10 05:26:13;;;;;;;;;;;;;;;8.76;68.47;99119.78;5063384;28;19917;-87
2021/12/10 05:28:38;;;;;;;;;;;;;;;8.67;67.29;99122.13;5061587;28;19917;-85
2021/12/10 05:31:04;;;;;;;;;;;;;;;8.62;67.76;99124.25;5061290;28;19924;-85
2021/12/10 05:33:30;;;;;;;;;;;;;;;7.97;69.14;99138.38;5045076;28;19916;-85
2021/12/10 05:35:57;;;;;;;;;;;;;;;8.46;68.77;99126.25;5061839;28;19978;-86
2021/12/10 05:38:23;;;;;;;;;;;;;;;9.21;66.79;99122.97;5061629;28;19917;-86
2021/12/10 05:40:51;;;;;;;;;;;;;;;8.62;66.85;99126.97;5062590;28;19927;-85
2021/12/10 05:43:17;;;;;;;;;;;;;;;8.71;66.79;99124.59;5061121;28;19923;-85
2021/12/10 05:45:42;;;;;;;;;;;;;;;8.96;67.34;99123.81;5062100;28;20008;-84
2021/12/10 05:48:08;;;;;;;;;;;;;;;8.63;67.53;99122.44;5045667;28;20398;-86
2021/12/10 05:50:33;;;;;;;;;;;;;;;9.34;65.46;99113.03;5024069;28;19924;-86
2021/12/10 05:52:59;;;;;;;;;;;;;;;9.25;65.71;99110.97;5025577;28;19991;-87
2021/12/10 05:55:24;;;;;;;;;;;;;;;9.88;64.51;99103.78;5042166;28;19917;-86
2021/12/10 05:57:49;;;;;;;;;;;;;;;9.33;65.63;99105.91;5042954;28;19918;-86
2021/12/10 06:00:18;;;;;;;;;;;;;;;8.49;66.93;99120.66;5043515;28;19913;-85
2021/12/10 06:02:45;;;;;;;;;;;;;;;9.54;63.67;99108.94;5041338;28;19944;-87
2021/12/10 06:05:10;;;;;;;;;;;;;;;10.71;61.38;99095.94;5026245;28;19921;-85
2021/12/10 06:07:36;;;;;;;;;;;;;;;9.97;62.95;99110.38;5045137;28;20020;-87
2021/12/10 06:10:02;;;;;;;;;;;;;;;9.34;63.61;99113.03;5045417;28;19956;-86
2021/12/10 06:12:27;;;;;;;;;;;;;;;9.18;64.08;99123.19;5044159;28;19921;-85
2021/12/10 06:14:52;;;;;;;;;;;;;;;9.00;64.83;99117.22;5043480;28;19917;-86
2021/12/10 06:17:18;;;;;;;;;;;;;;;9.19;64.01;99128.47;5042808;28;19928;-85
2021/12/10 06:19:43;;;;;;;;;;;;;;;9.27;64.42;99127.06;5026584;28;19922;-86
2021/12/10 06:22:08;;;;;;;;;;;;;;;8.78;66.36;99125.91;5039971;28;19917;-86
2021/12/10 06:24:34;;;;;;;;;;;;;;;9.02;65.54;99126.94;5039718;28;19917;-85
2021/12/10 06:27:00;;;;;;;;;;;;;;;9.17;66.74;99130.41;5040688;28;19917;-87
2021/12/10 06:29:27;;;;;;;;;;;;;;;9.25;65.88;99126.31;5022577;28;19929;-87
2021/12/10 06:31:53;;;;;;;;;;;;;;;10.43;62.82;99120.50;5040806;28;19963;-86
2021/12/10 06:34:19;;;;;;;;;;;;;;;8.66;66.34;99127.59;5048224;28;19921;-84
2021/12/10 06:36:44;;;;;;;;;;;;;;;8.97;66.39;99125.53;5049662;28;19928;-87
2021/12/10 06:39:10;;;;;;;;;;;;;;;9.63;67.35;99114.63;5026410;28;19970;-86
2021/12/10 06:41:35;;;;;;;;;;;;;;;9.16;65.95;99128.69;5040899;28;20398;-87
2021/12/10 06:44:04;;;;;;;;;;;;;;;8.92;66.69;99119.56;5039653;28;19925;-86
2021/12/10 06:46:31;;;;;;;;;;;;;;;8.93;66.32;99121.31;5038394;28;19921;-85
2021/12/10 06:48:57;;;;;;;;;;;;;;;8.96;66.28;99126.50;5022449;28;19927;-86
2021/12/10 06:51:22;;;;;;;;;;;;;;;9.53;65.97;99123.41;5021367;28;19921;-86
2021/12/10 06:53:48;;;;;;;;;;;;;;;9.34;65.63;99115.72;5020857;28;19921;-88
2021/12/10 06:56:14;;;;;;;;;;;;;;;9.45;64.15;99123.09;5038360;28;19917;-87
2021/12/10 06:58:42;;;;;;;;;;;;;;;9.84;63.96;99134.69;5038422;28;19917;-87
2021/12/10 07:01:12;;;;;;;;;;;;;;;8.92;66.16;99139.31;5039084;28;19917;-87
2021/12/10 07:03:45;;;;;;;;;;;;;;;9.21;65.82;99140.03;5023489;28;19917;-88
2021/12/10 07:06:28;;;;;;;;;;;;;;;10.58;62.77;99129.31;5041813;28;19905;-91
2021/12/10 07:08:54;;;;;;;;;;;;;;;9.91;63.15;99135.97;5040431;28;19917;-86
2021/12/10 07:11:21;;;;;;;;;;;;;;;10.36;61.99;99123.78;5038436;28;20294;-88
2021/12/10 07:13:49;;;;;;;;;;;;;;;10.03;63.48;99130.66;5038854;28;19940;-88
2021/12/10 07:16:14;;;;;;;;;;;;;;;9.57;63.68;99135.72;5037760;28;20362;-88
2021/12/10 07:18:41;;;;;;;;;;;;;;;9.85;63.89;99131.03;5021593;28;19918;-87
2021/12/10 07:21:17;;;;;;;;;;;;;;;9.98;63.19;99138.22;5036806;28;19932;-88
2021/12/10 07:23:43;;;;;;;;;;;;;;;9.21;65.19;99134.63;5023851;28;19917;-87
2021/12/10 07:26:09;;;;;;;;;;;;;;;9.94;62.12;99143.84;5029788;28;20397;-86
2021/12/10 07:28:35;;;;;;;;;;;;;;;10.68;61.53;99139.44;5034178;28;19901;-88
2021/12/10 07:31:01;;;;;;;;;;;;;;;9.77;62.81;99155.03;5038259;28;20011;-88
2021/12/10 07:33:26;;;;;;;;;;;;;;;9.27;64.30;99154.03;5034307;28;19944;-89
2021/12/10 07:35:52;;;;;;;;;;;;;;;8.64;64.55;99154.66;5031229;28;19917;-88
2021/12/10 07:38:17;;;;;;;;;;;;;;;8.99;64.97;99154.13;5024782;28;19924;-85
2021/12/10 07:40:43;;;;;;;;;;;;;;;9.40;64.00;99157.63;5038192;28;19917;-88
2021/12/10 07:43:09;;;;;;;;;;;;;;;9.46;67.73;99161.72;5028725;28;20406;-88
2021/12/10 07:45:36;;;;;;;;;;;;;;;9.91;64.68;99152.19;5017815;28;20240;-87
2021/12/10 07:48:07;;;;;;;;;;;;;;;9.44;63.69;99148.34;5023828;28;20011;-84
2021/12/10 07:50:34;;;;;;;;;;;;;;;8.74;67.29;99160.31;5040695;28;19963;-84
2021/12/10 07:53:07;;;;;;;;;;;;;;;8.12;69.31;99161.63;5037563;28;19968;-87
2021/12/10 07:55:34;;;;;;;;;;;;;;;8.42;69.22;99168.66;5037655;28;19916;-89
2021/12/10 07:58:00;;;;;;;;;;;;;;;8.81;67.96;99167.00;5038209;28;19921;-89
2021/12/10 08:00:27;;;;;;;;;;;;;;;8.99;67.67;99166.75;5037526;28;20398;-86
2021/12/10 08:02:52;;;;;;;;;;;;;;;9.11;67.85;99163.19;5037645;28;19917;-89
2021/12/10 08:05:19;;;;;;;;;;;;;;;8.71;67.02;99159.66;5036771;28;19928;-89
2021/12/10 08:07:44;;;;;;;;;;;;;;;9.08;67.16;99159.88;5037107;28;19917;-88
2021/12/10 08:10:11;;;;;;;;;;;;;;;9.45;66.69;99155.47;5037510;28;19956;-88
2021/12/10 08:12:36;;;;;;;;;;;;;;;8.86;67.86;99162.19;5038037;28;19956;-89
2021/12/10 08:15:02;;;;;;;;;;;;;;;9.23;66.69;99162.34;5039023;28;19917;-89
2021/12/10 08:17:27;;;;;;;;;;;;;;;8.46;84.61;99166.69;5038976;28;19943;-89
2021/12/10 08:19:53;;;;;;;;;;;;;;;8.86;69.14;99164.88;5039166;28;19965;-89
2021/12/10 08:22:19;;;;;;;;;;;;;;;7.98;69.70;99178.66;5038329;28;19921;-89
2021/12/10 08:24:45;;;;;;;;;;;;;;;8.29;69.02;99176.69;5037886;28;20386;-90
2021/12/10 08:27:11;;;;;;;;;;;;;;;9.54;66.67;99170.13;5036560;28;19917;-86
2021/12/10 08:29:37;;;;;;;;;;;;;;;8.76;67.77;99171.84;5039341;28;19913;-89
2021/12/10 08:32:02;;;;;;;;;;;;;;;8.61;67.94;99172.88;5038272;28;19921;-90
2021/12/10 08:34:28;;;;;;;;;;;;;;;9.26;67.72;99168.53;5037808;28;20325;-88
2021/12/10 08:36:54;;;;;;;;;;;;;;;10.16;64.30;99169.34;5039163;28;19917;-90
2021/12/10 08:39:22;;;;;;;;;;;;;;;9.57;64.89;99167.22;5034300;28;19925;-89
2021/12/10 08:41:48;;;;;;;;;;;;;;;8.58;68.24;99178.50;5021835;28;19920;-89
2021/12/10 08:44:14;;;;;;;;;;;;;;;8.96;67.56;99188.53;5021910;28;19917;-88
2021/12/10 08:46:43;;;;;;;;;;;;;;;8.87;68.02;99182.78;5034616;28;19991;-89
2021/12/10 08:49:09;;;;;;;;;;;;;;;8.78;67.83;99187.94;5047319;28;19921;-90
2021/12/10 08:51:40;;;;;;;;;;;;;;;9.01;67.64;99191.75;5067511;28;19924;-89
2021/12/10 08:54:07;;;;;;;;;;;;;;;8.94;67.29;99191.34;5069251;28;19916;-86
2021/12/10 08:56:33;;;;;;;;;;;;;;;10.08;64.53;99179.81;5065922;28;19901;-85
2021/12/10 08:59:00;;;;;;;;;;;;;;;9.22;66.87;99192.13;5050834;28;19925;-88
2021/12/10 09:01:28;;;;;;;;;;;;;;;9.77;64.83;99192.84;5061259;28;19917;-85
2021/12/10 09:03:55;;;;;;;;;;;;;;;9.23;65.74;99200.13;5059263;28;19962;-87
2021/12/10 09:06:22;;;;;;;;;;;;;;;9.45;66.56;99200.47;5060309;28;19921;-88
2021/12/10 09:08:47;;;;;;;;;;;;;;;9.60;64.86;99209.34;5062819;28;19916;-85
2021/12/10 09:11:14;;;;;;;;;;;;;;;9.82;65.82;99200.59;5061586;28;20102;-88
2021/12/10 09:13:40;;;;;;;;;;;;;;;9.76;64.60;99208.16;5060358;28;19921;-90
2021/12/10 09:16:07;;;;;;;;;;;;;;;9.50;65.68;99214.53;5060684;28;19923;-89
2021/12/10 09:18:33;;;;;;;;;;;;;;;10.75;62.11;99211.88;5059625;28;19921;-86
2021/12/10 09:21:00;;;;;;;;;;;;;;;10.18;64.08;99216.00;5059710;28;20074;-89
2021/12/10 09:23:25;;;;;;;;;;;;;;;9.40;66.46;99227.78;5046949;28;20055;-88
2021/12/10 09:25:52;;;;;;;;;;;;;;;10.37;63.71;99223.69;5046871;28;19979;-88
2021/12/10 09:28:18;;;;;;;;;;;;;;;10.14;63.74;99227.16;5057030;28;19992;-89
2021/12/10 09:30:45;;;;;;;;;;;;;;;10.99;61.77;99227.22;5041284;28;19948;-91
2021/12/10 09:33:10;;;;;;;;;;;;;;;9.89;64.08;99224.38;5040567;28;19913;-88
2021/12/10 09:35:36;;;;;;;;;;;;;;;10.87;62.20;99230.88;5042755;28;19966;-89
2021/12/10 09:38:01;;;;;;;;;;;;;;;10.12;63.64;99229.97;5059593;28;19963;-87
2021/12/10 09:40:31;;;;;;;;;;;;;;;10.63;61.78;99229.03;5060706;28;19971;-90
2021/12/10 09:42:57;;;;;;;;;;;;;;;11.33;60.51;99233.66;5071154;28;19932;-86
2021/12/10 09:45:24;;;;;;;;;;;;;;;11.38;60.11;99238.72;5056876;28;19925;-89
2021/12/10 09:47:50;;;;;;;;;;;;;;;11.15;61.32;99243.19;5071605;28;19964;-88
2021/12/10 09:50:17;;;;;;;;;;;;;;;10.54;61.59;99249.50;5067342;28;19905;-88
2021/12/10 09:52:43;;;;;;;;;;;;;;;10.86;61.70;99250.81;5058339;28;19917;-85
2021/12/10 09:55:10;;;;;;;;;;;;;;;11.54;59.64;99249.25;5054457;28;19928;-86
2021/12/10 09:57:36;;;;;;;;;;;;;;;9.83;64.10;99249.13;5035922;28;19921;-87
2021/12/10 10:00:06;;;;;;;;;;;;;;;9.52;63.21;99258.47;5057991;28;20482;-87
2021/12/10 10:02:32;;;;;;;;;;;;;;;9.63;64.77;99250.53;5057374;28;20440;-88
2021/12/10 10:04:58;;;;;;;;;;;;;;;10.16;64.08;99249.53;5041073;28;19921;-86
2021/12/10 10:07:25;;;;;;;;;;;;;;;9.36;65.25;99258.66;5040182;28;19948;-88
2021/12/10 10:09:52;;;;;;;;;;;;;;;9.91;64.88;99271.03;5038422;28;19921;-86
2021/12/10 10:12:21;;;;;;;;;;;;;;;10.54;62.81;99251.34;5054435;28;19921;-87
2021/12/10 10:14:46;;;;;;;;;;;;;;;10.46;62.60;99257.28;5054182;28;19924;-88
2021/12/10 10:17:12;;;;;;;;;;;;;;;10.88;61.86;99257.81;5057580;28;19924;-86
2021/12/10 10:19:39;;;;;;;;;;;;;;;11.37;61.94;99242.44;5043054;28;20004;-89
2021/12/10 10:22:06;;;;;;;;;;;;;;;11.23;60.17;99248.91;5057979;28;19917;-89
2021/12/10 10:24:33;;;;;;;;;;;;;;;11.28;60.72;99254.81;5058404;28;19917;-90
2021/12/10 10:27:05;;;;;;;;;;;;;;;10.10;63.22;99270.63;5058941;28;19921;-91
2021/12/10 10:29:34;;;;;;;;;;;;;;;10.73;61.92;99262.50;5057456;28;19962;-89
2021/12/10 10:32:08;;;;;;;;;;;;;;;11.07;61.21;99262.72;5058566;28;19917;-88
2021/12/10 10:34:33;;;;;;;;;;;;;;;10.35;62.84;99260.78;5057494;28;19956;-89
2021/12/10 10:36:59;;;;;;;;;;;;;;;10.64;61.69;99265.88;5057897;28;20373;-84
2021/12/10 10:39:25;;;;;;;;;;;;;;;10.68;61.91;99258.44;5051765;28;19964;-89
2021/12/10 10:41:53;;;;;;;;;;;;;;;10.70;63.26;99264.59;5054482;28;20400;-88
2021/12/10 10:44:19;;;;;;;;;;;;;;;11.16;61.15;99261.16;5053765;28;19925;-90
2021/12/10 10:46:46;;;;;;;;;;;;;;;11.21;61.73;99267.06;5054806;28;19925;-88
2021/12/10 10:49:29;;;;;;;;;;;;;;;10.69;63.06;99270.97;5056470;28;19933;-89
2021/12/10 10:51:56;;;;;;;;;;;;;;;10.94;61.69;99270.88;5059295;28;19921;-88
2021/12/10 10:54:29;;;;;;;;;;;;;;;11.65;60.94;99265.50;5042448;28;19900;-91
2021/12/10 10:56:54;;;;;;;;;;;;;;;12.08;59.52;99265.88;5031887;28;19955;-90
2021/12/10 10:59:24;;;;;;;;;;;;;;;11.53;60.22;99274.59;5026010;28;19920;-85
2021/12/10 11:01:58;;;;;;;;;;;;;;;10.57;62.96;99279.00;5059124;28;19959;-90
2021/12/10 11:04:28;;;;;;;;;;;;;;;11.20;61.56;99273.47;5040470;28;19924;-88
2021/12/10 11:06:56;;;;;;;;;;;;;;;11.13;61.52;99270.38;5042386;28;19917;-87
2021/12/10 11:09:24;;;;;;;;;;;;;;;11.18;61.74;99267.31;5060057;28;19939;-90
2021/12/10 11:11:57;;;;;;;;;;;;;;;11.15;60.73;99264.84;5059077;28;20340;-89
2021/12/10 11:14:25;;;;;;;;;;;;;;;10.62;62.22;99284.09;5059033;28;20448;-88
2021/12/10 11:16:54;;;;;;;;;;;;;;;12.37;58.95;99271.69;5059509;28;19925;-88
2021/12/10 11:19:24;;;;;;;;;;;;;;;12.19;59.01;99274.88;5058357;28;19920;-88
2021/12/10 11:21:54;;;;;;;;;;;;;;;12.96;57.30;99273.22;5059423;28;19992;-88
2021/12/10 11:24:25;;;;;;;;;;;;;;;12.61;57.56;99274.25;5055575;28;19917;-83
2021/12/10 11:26:59;;;;;;;;;;;;;;;11.73;60.45;99283.03;5055484;28;19969;-86
2021/12/10 11:29:31;;;;;;;;;;;;;;;11.53;61.21;99286.31;5060725;28;19916;-89
2021/12/10 11:32:01;;;;;;;;;;;;;;;11.93;60.37;99295.91;5055874;28;19917;-89
2021/12/10 11:34:46;;;;;;;;;;;;;;;12.32;59.35;99295.59;5032002;28;19928;-88
2021/12/10 11:37:12;;;;;;;;;;;;;;;12.10;59.87;99294.59;5042958;28;20352;-92
2021/12/10 11:39:49;;;;;;;;;;;;;;;11.99;59.42;99289.16;5044678;28;20374;-91
2021/12/10 11:42:34;;;;;;;;;;;;;;;11.70;61.37;99298.53;5033478;28;19917;-89
2021/12/10 11:45:27;;;;;;;;;;;;;;;12.04;59.93;99297.78;5046558;28;19948;-89
2021/12/10 11:47:52;;;;;;;;;;;;;;;12.34;59.44;99289.06;5039092;28;19972;-88
2021/12/10 11:50:19;;;;;;;;;;;;;;;11.41;61.11;99306.16;5053728;28;19917;-89
2021/12/10 11:52:58;;;;;;;;;;;;;;;12.30;59.77;99293.00;5054223;28;19917;-86
2021/12/10 11:55:23;;;;;;;;;;;;;;;11.49;61.04;99300.19;5054738;28;20017;-89
2021/12/10 11:57:50;;;;;;;;;;;;;;;11.87;60.30;99302.63;5055638;28;20008;-87
2021/12/10 12:00:25;;;;;;;;;;;;;;;11.55;60.10;99299.72;5039341;28;19928;-87
2021/12/10 12:02:52;;;;;;;;;;;;;;;12.98;57.62;99297.50;5055791;28;19905;-90
2021/12/10 12:05:20;;;;;;;;;;;;;;;12.83;57.11;99305.06;5055696;28;19917;-90
2021/12/10 12:07:49;;;;;;;;;;;;;;;12.27;59.32;99305.94;5055242;28;19917;-89
2021/12/10 12:10:22;;;;;;;;;;;;;;;12.79;56.32;99307.19;5054986;28;19960;-90
2021/12/10 12:12:51;;;;;;;;;;;;;;;13.61;55.43;99316.72;5042739;28;20394;-89
2021/12/10 12:15:19;;;;;;;;;;;;;;;13.02;56.55;99324.28;5043199;28;19913;-92
2021/12/10 12:17:46;;;;;;;;;;;;;;;13.68;55.41;99317.94;5045153;28;19979;-88
2021/12/10 12:20:31;;;;;;;;;;;;;;;12.89;56.44;99320.84;5060212;28;19960;-90
2021/12/10 12:25:49;;;;;;;;;;;;;;;12.49;57.66;99329.50;5042098;28;19924;-90
2021/12/10 12:28:16;;;;;;;;;;;;;;;12.66;56.53;99328.16;5058876;28;19979;-89
2021/12/10 12:30:53;;;;;;;;;;;;;;;13.01;55.65;99340.69;5060086;28;19917;-89
2021/12/10 12:33:19;;;;;;;;;;;;;;;12.66;56.35;99336.28;5043207;28;20392;-89
2021/12/10 12:35:45;;;;;;;;;;;;;;;12.09;57.97;99335.38;5042998;28;19917;-89
2021/12/10 12:38:16;;;;;;;;;;;;;;;12.29;57.04;99345.53;5043817;28;19924;-90
2021/12/10 12:40:44;;;;;;;;;;;;;;;12.45;55.36;99338.88;5044531;28;19917;-92
2021/12/10 12:43:09;;;;;;;;;;;;;;;11.43;58.31;99354.78;5058624;28;19916;-90
2021/12/10 12:45:36;;;;;;;;;;;;;;;12.99;55.80;99350.81;5059183;28;19917;-87
2021/12/10 12:48:08;;;;;;;;;;;;;;;12.86;55.48;99349.13;5052782;28;19974;-89
2021/12/10 12:50:46;;;;;;;;;;;;;;;13.68;51.13;99355.97;5060388;23;19960;-92
2021/12/10 12:53:15;;;;;;;;;;;;;;;12.03;52.53;99361.09;5055096;28;19928;-88
2021/12/10 12:55:46;;;;;;;;;;;;;;;12.38;51.51;99366.47;5071724;28;19921;-89
2021/12/10 12:58:11;;;;;;;;;;;;;;;12.93;50.55;99360.31;5056259;28;19978;-86
2021/12/10 13:00:37;;;;;;;;;;;;;;;13.30;49.88;99369.03;5071036;28;19947;-89
2021/12/10 13:03:09;;;;;;;;;;;;;;;13.18;49.39;99377.31;5049014;28;19928;-87
2021/12/10 13:05:37;;;;;;;;;;;;;;;13.38;48.66;99376.56;5046345;28;20382;-87
2021/12/10 13:08:07;;;;;;;;;;;;;;;13.47;47.88;99381.25;5043985;28;19901;-91
2021/12/10 13:10:37;;;;;;;;;;;;;;;13.78;47.40;99377.78;5032848;28;19920;-90